createdAt,value
2023-11-30T00:00:24.158Z,26.87
2023-11-30T00:03:11.699Z,24.83
2023-11-30T00:05:38.907Z,25.58
2023-11-30T00:08:06.420Z,25.27
2023-11-30T00:10:33.575Z,26.80
2023-11-30T00:13:01.056Z,26.33
2023-11-30T00:15:28.469Z,25.13
2023-11-30T00:17:56.039Z,28.35
2023-11-30T00:20:23.308Z,25.60
2023-11-30T00:22:50.780Z,27.83
2023-11-30T00:25:18.085Z,29.73
2023-11-30T00:27:45.553Z,30.87
2023-11-30T00:30:13.251Z,26.58
2023-11-30T00:32:40.824Z,26.58
2023-11-30T00:35:08.449Z,24.63
2023-11-30T00:37:36.007Z,29.05
2023-11-30T00:40:05.199Z,25.50
2023-11-30T00:42:32.958Z,23.67
2023-11-30T00:45:00.356Z,24.98
2023-11-30T00:47:27.938Z,27.37
2023-11-30T00:49:55.463Z,24.58
2023-11-30T00:52:22.942Z,25.50
2023-11-30T00:54:50.134Z,24.95
2023-11-30T00:57:17.646Z,23.37
2023-11-30T00:59:45.154Z,24.80
2023-11-30T01:02:12.926Z,24.23
2023-11-30T01:04:43.553Z,24.43
2023-11-30T01:07:11.070Z,27.40
2023-11-30T01:09:41.409Z,28.60
2023-11-30T01:12:09.272Z,27.90
2023-11-30T01:14:36.536Z,26.33
2023-11-30T01:17:04.219Z,26.08
2023-11-30T01:19:31.399Z,28.10
2023-11-30T01:21:59.079Z,27.23
2023-11-30T01:24:26.250Z,26.03
2023-11-30T01:26:53.813Z,27.93
2023-11-30T01:29:20.998Z,27.23
2023-11-30T01:31:48.510Z,24.60
2023-11-30T01:34:15.661Z,24.10
2023-11-30T01:36:43.145Z,26.77
2023-11-30T01:39:10.355Z,21.73
2023-11-30T01:41:37.963Z,24.55
2023-11-30T01:44:05.376Z,26.00
2023-11-30T01:46:33.579Z,23.40
2023-11-30T01:49:01.142Z,22.57
2023-11-30T01:51:29.763Z,25.55
2023-11-30T01:53:57.880Z,24.88
2023-11-30T01:56:25.540Z,26.27
2023-11-30T01:58:53.623Z,27.52
2023-11-30T02:01:21.675Z,26.90
2023-11-30T02:03:49.169Z,23.30
2023-11-30T02:06:20.496Z,26.90
2023-11-30T02:08:47.761Z,24.17
2023-11-30T02:11:15.683Z,25.23
2023-11-30T02:13:42.891Z,27.47
2023-11-30T02:16:10.981Z,25.57
2023-11-30T02:18:38.497Z,24.27
2023-11-30T02:21:06.151Z,24.75
2023-11-30T02:23:33.365Z,22.07
2023-11-30T02:26:00.925Z,21.80
2023-11-30T02:28:28.151Z,23.33
2023-11-30T02:30:55.704Z,25.60
2023-11-30T02:33:22.938Z,25.30
2023-11-30T02:35:50.577Z,23.20
2023-11-30T02:38:17.764Z,20.40
2023-11-30T02:40:46.033Z,24.10
2023-11-30T02:43:13.191Z,23.50
2023-11-30T02:45:40.894Z,23.83
2023-11-30T02:48:08.257Z,25.27
2023-11-30T02:50:35.914Z,25.00
2023-11-30T02:53:03.262Z,28.58
2023-11-30T02:55:30.758Z,24.88
2023-11-30T02:57:58.026Z,24.25
2023-11-30T03:00:25.857Z,25.35
2023-11-30T03:02:53.137Z,25.48
2023-11-30T03:05:20.667Z,21.17
2023-11-30T03:07:47.824Z,21.05
2023-11-30T03:10:15.262Z,22.73
2023-11-30T03:12:42.448Z,23.02
2023-11-30T03:15:10.383Z,23.73
2023-11-30T03:17:37.863Z,25.00
2023-11-30T03:20:05.869Z,23.63
2023-11-30T03:22:33.092Z,24.27
2023-11-30T03:25:00.776Z,21.98
2023-11-30T03:27:27.979Z,23.55
2023-11-30T03:29:55.518Z,25.30
2023-11-30T03:32:22.713Z,23.48
2023-11-30T03:34:50.243Z,22.17
2023-11-30T03:37:17.520Z,25.20
2023-11-30T03:39:45.140Z,22.75
2023-11-30T03:42:12.416Z,22.90
2023-11-30T03:44:39.897Z,23.20
2023-11-30T03:47:07.205Z,25.90
2023-11-30T03:49:34.978Z,22.52
2023-11-30T03:52:02.428Z,24.43
2023-11-30T03:54:30.047Z,29.00
2023-11-30T03:56:57.300Z,30.20
2023-11-30T03:59:24.841Z,31.05
2023-11-30T04:01:52.221Z,29.27
2023-11-30T04:04:19.848Z,29.65
2023-11-30T04:06:47.071Z,29.63
2023-11-30T04:09:17.714Z,27.25
2023-11-30T04:11:46.282Z,25.02
2023-11-30T04:14:13.754Z,24.77
2023-11-30T04:16:41.116Z,26.40
2023-11-30T04:19:08.578Z,25.10
2023-11-30T04:21:35.850Z,24.60
2023-11-30T04:24:03.444Z,23.98
2023-11-30T04:26:31.019Z,23.63
2023-11-30T04:28:58.852Z,24.00
2023-11-30T04:31:26.095Z,25.85
2023-11-30T04:33:53.792Z,24.65
2023-11-30T04:36:21.079Z,25.73
2023-11-30T04:38:48.599Z,25.15
2023-11-30T04:41:15.759Z,31.45
2023-11-30T04:43:43.279Z,31.40
2023-11-30T04:46:10.484Z,25.35
2023-11-30T04:48:40.032Z,24.63
2023-11-30T04:51:09.303Z,22.40
2023-11-30T04:53:37.201Z,21.48
2023-11-30T04:56:04.817Z,22.67
2023-11-30T04:58:32.409Z,21.67
2023-11-30T05:00:59.587Z,20.52
2023-11-30T05:03:27.408Z,22.40
2023-11-30T05:05:54.890Z,24.52
2023-11-30T05:08:22.327Z,23.98
2023-11-30T05:10:49.768Z,24.33
2023-11-30T05:13:17.308Z,23.37
2023-11-30T05:15:46.295Z,23.15
2023-11-30T05:18:14.967Z,24.60
2023-11-30T05:20:42.191Z,20.90
2023-11-30T05:23:09.582Z,24.27
2023-11-30T05:25:36.908Z,24.40
2023-11-30T05:28:05.903Z,24.30
2023-11-30T05:30:33.471Z,24.25
2023-11-30T05:33:01.059Z,26.27
2023-11-30T05:35:28.312Z,22.55
2023-11-30T05:37:55.702Z,24.08
2023-11-30T05:40:22.938Z,25.70
2023-11-30T05:42:50.524Z,25.20
2023-11-30T05:45:17.899Z,25.02
2023-11-30T05:47:45.319Z,27.55
2023-11-30T05:50:13.599Z,26.50
2023-11-30T05:52:41.215Z,27.10
2023-11-30T05:55:09.028Z,30.75
2023-11-30T05:57:39.337Z,27.17
2023-11-30T06:00:07.135Z,28.27
2023-11-30T06:02:34.619Z,25.48
2023-11-30T06:05:01.913Z,26.05
2023-11-30T06:07:30.859Z,27.65
2023-11-30T06:09:58.167Z,28.35
2023-11-30T06:12:25.673Z,28.88
2023-11-30T06:14:52.848Z,26.95
2023-11-30T06:17:20.323Z,28.42
2023-11-30T06:19:47.774Z,27.95
2023-11-30T06:22:15.285Z,28.73
2023-11-30T06:24:42.495Z,30.33
2023-11-30T06:27:09.996Z,32.13
2023-11-30T06:29:37.239Z,34.40
2023-11-30T06:32:05.714Z,39.73
2023-11-30T06:34:34.399Z,38.67
2023-11-30T06:37:01.925Z,36.77
2023-11-30T06:39:29.999Z,36.78
2023-11-30T06:41:57.549Z,35.23
2023-11-30T06:44:24.684Z,37.30
2023-11-30T06:46:52.193Z,37.83
2023-11-30T06:49:19.662Z,33.97
2023-11-30T06:51:47.175Z,37.87
2023-11-30T06:54:14.349Z,33.60
2023-11-30T06:56:41.834Z,37.47
2023-11-30T06:59:08.961Z,39.63
2023-11-30T07:01:37.669Z,36.92
2023-11-30T07:04:05.058Z,38.22
2023-11-30T07:06:32.786Z,35.03
2023-11-30T07:09:00.049Z,37.25
2023-11-30T07:11:27.481Z,35.55
2023-11-30T07:13:54.714Z,37.27
2023-11-30T07:16:22.266Z,32.15
2023-11-30T07:18:49.520Z,30.48
2023-11-30T07:21:17.064Z,31.77
2023-11-30T07:23:44.938Z,38.70
2023-11-30T07:26:13.232Z,32.97
2023-11-30T07:28:41.166Z,32.47
2023-11-30T07:31:09.131Z,34.30
2023-11-30T07:33:38.941Z,32.83
2023-11-30T07:36:09.610Z,39.13
2023-11-30T07:38:38.595Z,35.97
2023-11-30T07:41:07.521Z,41.60
2023-11-30T07:43:34.872Z,34.72
2023-11-30T07:46:02.805Z,34.40
2023-11-30T07:48:30.722Z,40.95
2023-11-30T07:50:58.134Z,35.53
2023-11-30T07:53:25.399Z,34.70
2023-11-30T07:55:57.247Z,33.67
2023-11-30T07:58:25.079Z,32.05
2023-11-30T08:00:52.880Z,30.70
2023-11-30T08:03:20.429Z,32.30
2023-11-30T08:05:48.031Z,33.45
2023-11-30T08:08:15.186Z,31.98
2023-11-30T08:10:42.671Z,33.88
2023-11-30T08:13:12.158Z,37.92
2023-11-30T08:15:39.680Z,37.88
2023-11-30T08:18:09.219Z,32.70
2023-11-30T08:20:36.857Z,36.08
2023-11-30T08:23:04.280Z,38.28
2023-11-30T08:25:32.875Z,38.33
2023-11-30T08:28:00.281Z,32.95
2023-11-30T08:30:27.958Z,27.33
2023-11-30T08:32:55.292Z,32.63
2023-11-30T08:35:23.034Z,30.35
2023-11-30T08:37:50.320Z,30.73
2023-11-30T08:40:17.939Z,26.42
2023-11-30T08:42:45.184Z,23.65
2023-11-30T08:45:12.720Z,24.08
2023-11-30T08:47:39.921Z,20.13
2023-11-30T08:50:08.916Z,20.55
2023-11-30T08:52:36.279Z,21.02
2023-11-30T08:55:04.045Z,17.95
2023-11-30T08:57:31.445Z,16.20
2023-11-30T08:59:59.267Z,17.85
2023-11-30T09:02:26.724Z,18.02
2023-11-30T09:04:54.605Z,15.25
2023-11-30T09:07:22.104Z,14.77
2023-11-30T09:09:51.646Z,11.57
2023-11-30T09:12:19.334Z,13.10
2023-11-30T09:14:46.922Z,14.20
2023-11-30T09:17:14.174Z,11.90
2023-11-30T09:19:41.590Z,16.17
2023-11-30T09:22:09.125Z,17.48
2023-11-30T09:24:36.668Z,16.10
2023-11-30T09:27:04.300Z,16.27
2023-11-30T09:29:31.830Z,13.45
2023-11-30T09:32:00.809Z,14.85
2023-11-30T09:34:30.472Z,17.08
2023-11-30T09:36:57.897Z,16.52
2023-11-30T09:39:25.326Z,14.38
2023-11-30T09:42:01.977Z,13.70
2023-11-30T09:44:29.452Z,13.95
2023-11-30T09:46:56.853Z,12.68
2023-11-30T09:49:24.559Z,13.55
2023-11-30T09:51:53.285Z,13.65
2023-11-30T09:54:21.651Z,14.38
2023-11-30T09:56:48.934Z,13.30
2023-11-30T09:59:16.599Z,11.27
2023-11-30T10:01:44.409Z,13.05
2023-11-30T10:04:16.686Z,11.68
2023-11-30T10:06:46.041Z,14.77
2023-11-30T10:09:14.403Z,13.45
2023-11-30T10:11:42.096Z,14.02
2023-11-30T10:14:10.258Z,11.82
2023-11-30T10:16:37.523Z,12.52
2023-11-30T10:19:08.110Z,13.80
2023-11-30T10:21:36.096Z,12.70
2023-11-30T10:24:03.817Z,11.88
2023-11-30T10:26:35.380Z,14.27
2023-11-30T10:29:07.966Z,12.25
2023-11-30T10:31:39.052Z,13.88
2023-11-30T10:34:12.790Z,14.82
2023-11-30T10:36:41.478Z,13.15
2023-11-30T10:39:17.942Z,14.73
2023-11-30T10:41:52.082Z,13.48
2023-11-30T10:44:29.326Z,12.95
2023-11-30T10:46:58.801Z,13.65
2023-11-30T10:49:28.866Z,13.00
2023-11-30T10:52:01.082Z,12.55
2023-11-30T10:54:40.102Z,14.13
2023-11-30T10:57:08.190Z,13.57
2023-11-30T10:59:35.968Z,14.10
2023-11-30T11:02:07.061Z,14.95
2023-11-30T11:04:41.908Z,11.73
2023-11-30T11:07:13.399Z,11.82
2023-11-30T11:09:46.065Z,10.73
2023-11-30T11:12:28.304Z,11.43
2023-11-30T11:15:14.346Z,10.63
2023-11-30T11:17:51.593Z,9.93
2023-11-30T11:20:30.489Z,12.63
2023-11-30T11:23:06.322Z,9.73
2023-11-30T11:25:47.328Z,11.68
2023-11-30T11:28:18.638Z,9.70
2023-11-30T11:30:48.950Z,10.25
2023-11-30T11:33:18.665Z,8.93
2023-11-30T11:35:47.348Z,9.35
2023-11-30T11:38:14.675Z,9.40
2023-11-30T11:40:43.095Z,9.55
2023-11-30T11:43:10.311Z,8.55
2023-11-30T11:45:38.838Z,9.77
2023-11-30T11:48:09.719Z,10.02
2023-11-30T11:50:37.396Z,9.88
2023-11-30T11:53:04.835Z,10.73
2023-11-30T11:55:32.647Z,9.20
2023-11-30T11:58:00.071Z,10.32
2023-11-30T12:00:28.038Z,9.60
2023-11-30T12:03:07.004Z,9.38
2023-11-30T12:05:34.880Z,8.77
2023-11-30T12:08:02.812Z,7.65
2023-11-30T12:10:33.145Z,7.85
2023-11-30T12:13:01.928Z,8.77
2023-11-30T12:15:30.566Z,8.75
2023-11-30T12:17:58.588Z,10.38
2023-11-30T12:20:26.262Z,8.60
2023-11-30T12:22:53.700Z,10.00
2023-11-30T12:25:21.588Z,8.60
2023-11-30T12:27:48.962Z,7.35
2023-11-30T12:30:16.663Z,8.63
2023-11-30T12:32:44.038Z,10.75
2023-11-30T12:35:11.557Z,10.73
2023-11-30T12:37:39.339Z,9.32
2023-11-30T12:40:15.043Z,11.32
2023-11-30T12:42:45.953Z,11.07
2023-11-30T12:45:14.036Z,9.98
2023-11-30T12:47:42.550Z,8.65
2023-11-30T12:50:11.324Z,9.15
2023-11-30T12:52:39.036Z,8.27
2023-11-30T12:55:06.986Z,7.57
2023-11-30T12:57:40.124Z,7.55
2023-11-30T13:00:15.798Z,7.07
2023-11-30T13:02:47.016Z,6.60
2023-11-30T13:05:15.804Z,7.32
2023-11-30T13:07:43.524Z,6.97
2023-11-30T13:10:12.317Z,9.60
2023-11-30T13:12:40.666Z,10.07
2023-11-30T13:15:11.818Z,9.52
2023-11-30T13:17:40.160Z,10.18
2023-11-30T13:20:14.512Z,10.02
2023-11-30T13:22:47.352Z,10.18
2023-11-30T13:25:15.585Z,11.45
2023-11-30T13:27:47.553Z,10.95
2023-11-30T13:30:16.925Z,10.48
2023-11-30T13:32:44.712Z,9.57
2023-11-30T13:35:12.059Z,11.52
2023-11-30T13:37:40.381Z,10.95
2023-11-30T13:40:09.117Z,10.65
2023-11-30T13:42:36.897Z,12.75
2023-11-30T13:45:06.631Z,11.45
2023-11-30T13:47:34.775Z,12.23
2023-11-30T13:50:02.174Z,12.05
2023-11-30T13:52:29.877Z,13.15
2023-11-30T13:54:57.166Z,13.63
2023-11-30T13:57:24.725Z,13.05
2023-11-30T13:59:51.971Z,12.38
2023-11-30T14:02:19.504Z,13.70
2023-11-30T14:04:47.490Z,13.60
2023-11-30T14:07:15.077Z,11.10
2023-11-30T14:09:42.296Z,15.18
2023-11-30T14:12:09.983Z,13.15
2023-11-30T14:14:38.685Z,16.25
2023-11-30T14:17:10.624Z,16.30
2023-11-30T14:19:37.879Z,15.55
2023-11-30T14:22:08.908Z,14.45
2023-11-30T14:24:36.274Z,15.18
2023-11-30T14:27:04.045Z,14.00
2023-11-30T14:29:31.275Z,11.63
2023-11-30T14:31:58.736Z,13.98
2023-11-30T14:34:25.935Z,16.50
2023-11-30T14:36:53.924Z,14.52
2023-11-30T14:39:25.693Z,20.33
2023-11-30T14:41:53.469Z,17.90
2023-11-30T14:44:20.606Z,14.48
2023-11-30T14:46:48.174Z,14.80
2023-11-30T14:49:15.344Z,17.35
2023-11-30T14:51:45.141Z,20.40
2023-11-30T14:54:12.417Z,19.65
2023-11-30T14:56:41.042Z,17.88
2023-11-30T14:59:09.726Z,15.25
2023-11-30T15:01:37.795Z,16.00
2023-11-30T15:04:05.341Z,13.80
2023-11-30T15:06:33.207Z,16.27
2023-11-30T15:09:00.389Z,21.77
2023-11-30T15:11:27.966Z,17.83
2023-11-30T15:13:55.543Z,19.02
2023-11-30T15:16:24.001Z,20.25
2023-11-30T15:18:51.645Z,21.65
2023-11-30T15:21:19.747Z,17.08
2023-11-30T15:23:46.984Z,17.38
2023-11-30T15:26:16.013Z,17.63
2023-11-30T15:28:44.093Z,14.40
2023-11-30T15:31:11.809Z,18.05
2023-11-30T15:33:39.101Z,15.63
2023-11-30T15:36:07.839Z,24.17
2023-11-30T15:38:36.771Z,27.13
2023-11-30T15:41:05.301Z,29.67
2023-11-30T15:43:32.572Z,24.60
2023-11-30T15:46:00.075Z,20.85
2023-11-30T15:48:27.470Z,27.75
2023-11-30T15:50:54.982Z,27.92
2023-11-30T15:53:22.178Z,25.10
2023-11-30T15:55:49.798Z,27.02
2023-11-30T15:58:17.009Z,24.70
2023-11-30T16:00:44.608Z,21.48
2023-11-30T16:03:13.098Z,25.25
2023-11-30T16:05:40.967Z,23.95
2023-11-30T16:08:08.160Z,22.25
2023-11-30T16:10:35.610Z,21.27
2023-11-30T16:13:02.865Z,23.30
2023-11-30T16:15:30.341Z,29.05
2023-11-30T16:17:57.724Z,37.25
2023-11-30T16:20:25.724Z,34.97
2023-11-30T16:22:52.875Z,35.22
2023-11-30T16:25:20.629Z,32.22
2023-11-30T16:27:47.984Z,34.53
2023-11-30T16:30:15.609Z,33.45
2023-11-30T16:32:43.072Z,35.83
2023-11-30T16:35:10.934Z,30.95
2023-11-30T16:37:38.272Z,41.83
2023-11-30T16:40:08.382Z,79.57
2023-11-30T16:42:35.808Z,188.73
2023-11-30T16:45:05.082Z,175.77
2023-11-30T16:47:33.767Z,202.43
2023-11-30T16:50:01.701Z,175.93
2023-11-30T16:52:30.354Z,168.40
2023-11-30T16:54:57.969Z,165.93
2023-11-30T16:57:25.610Z,156.48
2023-11-30T16:59:53.227Z,149.07
2023-11-30T17:02:20.543Z,146.48
2023-11-30T17:04:48.131Z,138.50
2023-11-30T17:07:15.369Z,124.93
2023-11-30T17:09:42.936Z,118.05
2023-11-30T17:12:15.691Z,102.03
2023-11-30T17:14:43.380Z,82.93
2023-11-30T17:17:10.650Z,71.82
2023-11-30T17:19:38.103Z,65.70
2023-11-30T17:22:05.423Z,57.90
2023-11-30T17:24:34.704Z,80.03
2023-11-30T17:27:03.807Z,78.10
2023-11-30T17:29:31.290Z,70.82
2023-11-30T17:32:00.169Z,80.88
2023-11-30T17:34:28.774Z,96.07
2023-11-30T17:36:56.078Z,92.22
2023-11-30T17:39:23.526Z,87.30
2023-11-30T17:41:50.707Z,84.78
2023-11-30T17:44:18.245Z,88.85
2023-11-30T17:46:45.463Z,77.10
2023-11-30T17:49:13.263Z,75.47
2023-11-30T17:51:40.430Z,73.53
2023-11-30T17:54:08.001Z,67.88
2023-11-30T17:56:35.137Z,66.90
2023-11-30T17:59:03.067Z,67.32
2023-11-30T18:01:30.697Z,70.20
2023-11-30T18:03:58.429Z,85.50
2023-11-30T18:06:26.810Z,84.18
2023-11-30T18:08:55.519Z,90.50
2023-11-30T18:11:22.835Z,82.47
2023-11-30T18:13:50.261Z,82.57
2023-11-30T18:16:17.530Z,78.25
2023-11-30T18:18:45.152Z,67.95
2023-11-30T18:21:12.988Z,67.40
2023-11-30T18:23:40.552Z,58.92
2023-11-30T18:26:07.834Z,56.08
2023-11-30T18:28:35.403Z,58.65
2023-11-30T18:31:12.232Z,48.65
2023-11-30T18:33:48.289Z,55.22
2023-11-30T18:36:15.514Z,67.35
2023-11-30T18:38:50.169Z,77.40
2023-11-30T18:41:22.382Z,87.85
2023-11-30T18:43:50.921Z,83.55
2023-11-30T18:46:19.188Z,79.30
2023-11-30T18:48:47.058Z,78.65
2023-11-30T18:51:14.377Z,100.25
2023-11-30T18:53:42.608Z,86.97
2023-11-30T18:56:10.001Z,79.15
2023-11-30T18:58:39.669Z,68.80
2023-11-30T19:01:06.956Z,65.82
2023-11-30T19:03:34.505Z,64.00
2023-11-30T19:06:01.836Z,70.78
2023-11-30T19:08:29.328Z,73.25
2023-11-30T19:10:56.440Z,77.70
2023-11-30T19:13:23.912Z,82.63
2023-11-30T19:15:51.838Z,68.65
2023-11-30T19:18:19.493Z,67.40
2023-11-30T19:20:46.692Z,60.55
2023-11-30T19:23:14.175Z,55.10
2023-11-30T19:25:42.469Z,59.78
2023-11-30T19:28:10.162Z,51.85
2023-11-30T19:30:37.512Z,68.88
2023-11-30T19:33:05.076Z,70.55
2023-11-30T19:35:34.522Z,63.88
2023-11-30T19:38:02.130Z,57.60
2023-11-30T19:40:29.331Z,69.82
2023-11-30T19:42:57.896Z,76.43
2023-11-30T19:45:25.113Z,78.60
2023-11-30T19:47:52.695Z,67.95
2023-11-30T19:50:19.912Z,67.68
2023-11-30T19:52:47.476Z,59.20
2023-11-30T19:55:14.759Z,60.65
2023-11-30T19:57:42.337Z,62.58
2023-11-30T20:00:10.484Z,66.22
2023-11-30T20:02:38.036Z,80.93
2023-11-30T20:05:05.611Z,68.45
2023-11-30T20:07:33.052Z,92.80
2023-11-30T20:10:00.309Z,86.20
2023-11-30T20:12:28.998Z,90.75
2023-11-30T20:14:56.301Z,86.03
2023-11-30T20:17:23.794Z,95.10
2023-11-30T20:19:50.967Z,77.95
2023-11-30T20:22:18.457Z,75.55
2023-11-30T20:24:45.708Z,75.97
2023-11-30T20:27:13.241Z,79.43
2023-11-30T20:29:40.737Z,68.22
2023-11-30T20:32:08.353Z,69.85
2023-11-30T20:34:35.642Z,65.35
2023-11-30T20:37:03.118Z,74.20
2023-11-30T20:39:30.397Z,66.82
2023-11-30T20:41:58.301Z,67.20
2023-11-30T20:44:27.054Z,62.97
2023-11-30T20:46:54.554Z,77.65
2023-11-30T20:49:21.692Z,83.97
2023-11-30T20:51:49.505Z,82.60
2023-11-30T20:54:17.909Z,75.18
2023-11-30T20:56:48.482Z,74.72
2023-11-30T20:59:16.504Z,89.25
2023-11-30T21:01:50.180Z,74.65
2023-11-30T21:04:17.655Z,104.75
2023-11-30T21:06:45.305Z,113.00
2023-11-30T21:09:12.544Z,124.57
2023-11-30T21:11:40.166Z,137.63
2023-11-30T21:14:09.543Z,124.85
2023-11-30T21:16:37.417Z,189.63
2023-11-30T21:19:05.043Z,198.50
2023-11-30T21:21:32.686Z,160.38
2023-11-30T21:23:59.934Z,160.20
2023-11-30T21:26:27.542Z,182.45
2023-11-30T21:28:54.766Z,172.88
2023-11-30T21:31:23.745Z,177.40
2023-11-30T21:33:51.367Z,158.73
2023-11-30T21:36:21.982Z,146.38
2023-11-30T21:38:49.513Z,140.10
2023-11-30T21:41:17.375Z,137.80
2023-11-30T21:43:44.944Z,142.60
2023-11-30T21:46:12.517Z,127.05
2023-11-30T21:48:40.161Z,106.82
2023-11-30T21:51:07.725Z,105.28
2023-11-30T21:53:36.207Z,104.82
2023-11-30T21:56:03.685Z,112.90
2023-11-30T21:58:31.426Z,95.20
2023-11-30T22:00:58.939Z,104.07
2023-11-30T22:03:26.786Z,87.72
2023-11-30T22:05:54.442Z,93.40
2023-11-30T22:08:22.097Z,88.18
2023-11-30T22:10:50.992Z,114.10
2023-11-30T22:13:18.519Z,95.65
2023-11-30T22:15:46.156Z,92.57
2023-11-30T22:18:13.700Z,139.52
2023-11-30T22:20:44.993Z,143.38
2023-11-30T22:23:15.799Z,132.38
2023-11-30T22:25:43.835Z,137.60
2023-11-30T22:28:11.967Z,122.03
2023-11-30T22:30:39.243Z,107.13
2023-11-30T22:33:06.773Z,125.20
2023-11-30T22:35:34.027Z,120.25
2023-11-30T22:38:01.539Z,122.05
2023-11-30T22:40:28.881Z,127.20
2023-11-30T22:42:56.421Z,118.55
2023-11-30T22:45:24.013Z,117.15
2023-11-30T22:47:51.898Z,111.72
2023-11-30T22:50:19.306Z,105.13
2023-11-30T22:52:47.029Z,103.18
2023-11-30T22:55:14.533Z,107.18
2023-11-30T22:57:42.235Z,123.47
2023-11-30T23:00:17.453Z,125.68
2023-11-30T23:02:49.077Z,160.50
2023-11-30T23:05:20.038Z,154.50
2023-11-30T23:07:48.509Z,136.65
2023-11-30T23:10:18.691Z,160.75
2023-11-30T23:12:46.568Z,163.40
2023-11-30T23:15:13.919Z,149.77
2023-11-30T23:17:41.551Z,119.03
2023-11-30T23:20:09.426Z,119.97
2023-11-30T23:22:37.287Z,106.80
2023-11-30T23:25:04.717Z,114.45
2023-11-30T23:27:33.665Z,133.10
2023-11-30T23:30:00.921Z,111.40
2023-11-30T23:32:28.563Z,133.25
2023-11-30T23:34:55.853Z,124.50
2023-11-30T23:37:23.409Z,130.70
2023-11-30T23:39:51.201Z,118.00
2023-11-30T23:42:18.802Z,105.78
2023-11-30T23:44:46.135Z,110.53
2023-11-30T23:47:13.747Z,112.80
2023-11-30T23:49:41.172Z,111.82
2023-11-30T23:52:08.742Z,94.35
2023-11-30T23:54:36.046Z,85.97
2023-11-30T23:57:04.478Z,84.60
2023-11-30T23:59:32.939Z,79.18
